Time;durP1;ratioP1;P1;durP2;ratioP2;P2;SDS_P1;SDS_P2;PMS_P1;PMS_P2;Temp;Humidity;BMP_temperature;BMP_pressure;BME280_temperature;BME280_humidity;BME280_pressure;Samples;Min_cycle;Max_cycle;Signal;HPM_P1;HPM_P2
2021/03/28 19:28:33;;;;;;;13.95;5.03;;;;;;;7.04;35.92;100116.75;10663853;27;20804;-52
2021/03/28 19:33:38;;;;;;;19.60;8.88;;;;;;;7.42;34.77;100116.03;10664365;27;20370;-52
2021/03/28 19:38:42;;;;;;;18.33;7.60;;;;;;;7.45;34.41;100124.56;10670716;27;20047;-51
2021/03/28 19:43:56;;;;;;;17.98;8.57;;;;;;;7.37;34.91;100130.25;10663316;27;20043;-51
2021/03/28 19:49:12;;;;;;;21.97;8.70;;;;;;;7.26;34.87;100127.50;10663431;27;20471;-52
2021/03/28 19:54:18;;;;;;;24.88;9.65;;;;;;;7.25;35.01;100138.06;10663375;27;20102;-54
2021/03/28 19:59:29;;;;;;;15.70;6.50;;;;;;;7.15;35.42;100143.06;10664164;27;20043;-51
2021/03/28 20:04:49;;;;;;;13.27;6.32;;;;;;;7.03;35.73;100156.91;10666646;27;20068;-52
2021/03/28 20:09:51;;;;;;;11.85;4.78;;;;;;;6.91;35.88;100148.06;10662213;27;20051;-52
2021/03/28 20:14:53;;;;;;;12.77;5.82;;;;;;;6.87;36.01;100147.41;10661798;27;20046;-51
2021/03/28 20:19:54;;;;;;;11.65;5.07;;;;;;;6.77;36.42;100150.69;10662035;27;20061;-54
2021/03/28 20:24:57;;;;;;;7.03;3.22;;;;;;;6.62;37.33;100142.00;10660959;27;20047;-52
2021/03/28 20:30:01;;;;;;;10.75;4.07;;;;;;;6.53;37.34;100148.66;10665177;27;20379;-57
2021/03/28 20:35:06;;;;;;;8.20;4.30;;;;;;;6.54;37.61;100145.13;10660608;27;20069;-54
2021/03/28 20:40:15;;;;;;;11.00;4.30;;;;;;;6.51;38.04;100149.69;10631560;27;20464;-52
2021/03/28 20:45:24;;;;;;;7.50;4.20;;;;;;;6.44;38.14;100150.06;10631634;27;20499;-54
2021/03/28 20:50:36;;;;;;;9.43;3.78;;;;;;;6.34;38.36;100148.97;10633898;27;20093;-60
2021/03/28 20:55:39;;;;;;;10.52;3.95;;;;;;;6.31;38.48;100163.94;10633411;27;20042;-53
2021/03/28 21:00:42;;;;;;;10.87;4.37;;;;;;;6.29;38.32;100161.44;10633289;27;20062;-55
2021/03/28 21:05:44;;;;;;;7.83;4.50;;;;;;;6.30;37.64;100154.44;10631711;27;20082;-53
2021/03/28 21:10:54;;;;;;;8.70;4.55;;;;;;;6.32;37.93;100166.47;10630847;27;20054;-53
2021/03/28 21:16:01;;;;;;;9.73;4.60;;;;;;;6.34;37.66;100163.75;10631453;27;20503;-54
2021/03/28 21:21:03;;;;;;;9.65;4.38;;;;;;;6.32;37.34;100176.09;10630569;27;20043;-54
2021/03/28 21:26:06;;;;;;;11.90;5.30;;;;;;;6.23;37.60;100180.09;10630398;27;20051;-54
2021/03/28 21:31:10;;;;;;;9.10;5.05;;;;;;;6.10;38.20;100185.19;10630636;27;20047;-52
2021/03/28 21:36:12;;;;;;;;;;;;;;;6.07;38.31;100181.94;10629991;27;20053;-54
2021/03/28 21:41:15;;;;;;;11.52;4.75;;;;;;;6.04;38.84;100195.16;10630074;27;19990;-54
2021/03/28 21:46:38;;;;;;;12.10;4.93;;;;;;;5.94;39.38;100198.31;10631152;27;20043;-60
2021/03/28 21:51:41;;;;;;;15.50;5.20;;;;;;;5.92;39.47;100194.91;10628571;27;20303;-53
2021/03/28 21:56:43;;;;;;;9.40;5.07;;;;;;;5.89;39.10;100197.69;10628079;27;20058;-54
2021/03/28 22:01:45;;;;;;;10.40;5.22;;;;;;;5.86;39.83;100204.84;10629918;27;20042;-53
2021/03/28 22:06:50;;;;;;;13.98;7.53;;;;;;;5.73;40.12;100204.72;10629519;27;20043;-52
2021/03/28 22:11:54;;;;;;;9.48;5.05;;;;;;;5.64;40.90;100207.84;10629829;27;20047;-53
2021/03/28 22:16:57;;;;;;;13.32;7.10;;;;;;;5.53;40.86;100208.44;10629719;27;20475;-55
2021/03/28 22:22:05;;;;;;;14.80;7.10;;;;;;;5.47;42.00;100212.22;10628002;27;20047;-54
2021/03/28 22:27:09;;;;;;;11.27;5.35;;;;;;;5.39;42.26;100217.06;10628470;27;20051;-53
2021/03/28 22:32:13;;;;;;;10.15;4.88;;;;;;;5.28;42.60;100220.25;10628161;27;20119;-54
2021/03/28 22:37:19;;;;;;;8.73;4.85;;;;;;;5.23;42.84;100224.88;10628118;27;20047;-52
2021/03/28 22:42:24;;;;;;;11.70;5.45;;;;;;;5.15;43.41;100219.25;10632681;27;20049;-56
2021/03/28 22:47:32;;;;;;;11.48;4.38;;;;;;;5.06;43.66;100220.56;10631443;27;20039;-52
2021/03/28 22:52:34;;;;;;;13.88;5.10;;;;;;;4.97;43.74;100221.06;10627551;27;20046;-53
2021/03/28 22:57:37;;;;;;;8.07;4.05;;;;;;;4.92;43.54;100210.03;10628090;27;20042;-55
2021/03/28 23:02:39;;;;;;;8.27;4.65;;;;;;;4.91;42.69;100221.41;10629460;27;20047;-54
2021/03/28 23:07:41;;;;;;;9.23;4.32;;;;;;;4.88;42.12;100234.59;10626851;27;20524;-52
2021/03/28 23:12:49;;;;;;;10.32;4.03;;;;;;;4.83;42.29;100240.06;10627715;27;20051;-53
2021/03/28 23:17:54;;;;;;;8.13;4.03;;;;;;;4.79;42.27;100229.88;10626471;27;20050;-52
2021/03/28 23:22:55;;;;;;;9.68;3.60;;;;;;;4.74;42.24;100239.66;10625457;27;20509;-53
2021/03/28 23:27:59;;;;;;;8.32;2.92;;;;;;;4.69;42.19;100236.50;10626994;28;20078;-52
2021/03/28 23:33:01;;;;;;;8.60;2.90;;;;;;;4.64;42.06;100248.91;10625954;28;20075;-54
2021/03/28 23:38:03;;;;;;;7.95;3.33;;;;;;;4.56;42.52;100236.28;10625535;28;20055;-53
2021/03/28 23:43:10;;;;;;;8.02;2.85;;;;;;;4.50;42.66;100237.44;10626178;27;20051;-52
2021/03/28 23:48:19;;;;;;;6.13;2.75;;;;;;;4.43;42.59;100238.66;10625862;27;20050;-53
2021/03/28 23:53:22;;;;;;;20.45;4.13;;;;;;;4.34;42.44;100254.75;10625116;27;20046;-53
2021/03/28 23:58:26;;;;;;;11.25;4.45;;;;;;;4.29;42.36;100261.97;10626012;28;20126;-54
